Time;durP1;ratioP1;P1;durP2;ratioP2;P2;SDS_P1;SDS_P2;PMS_P1;PMS_P2;Temp;Humidity;BMP_temperature;BMP_pressure;BME280_temperature;BME280_humidity;BME280_pressure;Samples;Min_cycle;Max_cycle;Signal;HPM_P1;HPM_P2
2021/03/02 00:02:14;;;;;;;;;;;1.10;99.90;;;-0.93;89.94;102806.25;5019344;28;19939;-40
2021/03/02 00:04:45;;;;;;;;;;;1.00;99.90;;;-0.94;89.39;102808.06;5035112;28;19925;-40
2021/03/02 00:07:15;;;;;;;;;;;1.00;99.90;;;-0.95;89.20;102810.84;5052136;28;19925;-40
2021/03/02 00:09:43;;;;;;;;;;;1.00;99.90;;;-0.93;90.40;102809.81;5052163;28;19925;-40
2021/03/02 00:12:27;;;;;;;;;;;1.00;99.90;;;-0.94;90.57;102815.25;5037556;28;19932;-40
2021/03/02 00:14:55;;;;;;;;;;;1.00;99.90;;;-0.95;90.17;102808.16;5018175;28;19925;-40
2021/03/02 00:17:35;;;;;;;;;;;1.00;99.90;;;-0.95;90.27;102817.06;5035829;28;19925;-40
2021/03/02 00:20:11;;;;;;;;;;;1.00;99.90;;;-0.97;89.96;102812.75;5052042;28;20461;-40
2021/03/02 00:22:39;;;;;;;;;;;1.00;99.90;;;-0.99;89.80;102811.97;5052851;28;19925;-40
2021/03/02 00:25:08;;;;;;;;;;;1.00;99.90;;;-1.05;89.66;102814.06;5034411;28;20022;-40
2021/03/02 00:27:36;;;;;;;;;;;0.90;99.90;;;-1.06;90.00;102809.66;5018781;28;20426;-40
2021/03/02 00:30:05;;;;;;;;;;;0.90;99.90;;;-1.10;89.47;102813.44;5002803;28;19925;-40
2021/03/02 00:32:32;;;;;;;;;;;0.90;99.90;;;-1.17;89.97;102809.38;5002721;28;19975;-40
2021/03/02 00:35:00;;;;;;;;;;;0.90;99.90;;;-1.17;89.58;102809.38;5001810;28;19936;-40
2021/03/02 00:37:27;;;;;;;;;;;0.80;99.90;;;-1.16;89.58;102803.06;5034916;28;19925;-40
2021/03/02 00:39:54;;;;;;;;;;;0.80;99.90;;;-1.16;89.88;102809.31;5002437;28;19925;-40
2021/03/02 00:42:21;;;;;;;;;;;0.80;99.90;;;-1.14;90.04;102803.84;5018675;28;19929;-40
2021/03/02 00:44:49;;;;;;;;;;;0.80;99.90;;;-1.11;89.91;102806.34;5001708;28;19924;-40
2021/03/02 00:47:16;;;;;;;;;;;0.90;99.90;;;-1.10;90.07;102808.06;5002249;28;19924;-40
2021/03/02 00:49:44;;;;;;;;;;;0.80;99.90;;;-1.12;90.34;102803.78;5051498;28;19936;-40
2021/03/02 00:52:12;;;;;;;;;;;0.90;99.90;;;-1.19;90.27;102805.94;5035270;28;20318;-40
2021/03/02 00:54:40;;;;;;;;;;;0.80;99.90;;;-1.21;89.84;102805.16;5034141;28;19932;-40
2021/03/02 00:57:07;;;;;;;;;;;0.80;99.90;;;-1.19;89.88;102803.25;5017773;28;19925;-40
2021/03/02 00:59:35;;;;;;;;;;;0.80;99.90;;;-1.20;90.75;102802.38;5034870;28;19967;-40
2021/03/02 01:02:03;;;;;;;;;;;0.80;99.90;;;-1.21;90.76;102806.00;5018381;28;20418;-40
2021/03/02 01:04:30;;;;;;;;;;;0.80;99.90;;;-1.20;90.07;102804.19;5017620;28;20366;-40
2021/03/02 01:06:59;;;;;;;;;;;0.80;99.90;;;-1.20;90.56;102806.88;5018865;28;20019;-40
2021/03/02 01:09:30;;;;;;;;;;;0.80;99.90;;;-1.21;90.39;102799.78;5019233;28;20354;-40
2021/03/02 01:12:01;;;;;;;;;;;0.70;99.90;;;-1.20;90.52;102791.66;5051232;28;20280;-40
2021/03/02 01:14:33;;;;;;;;;;;0.80;99.90;;;-1.21;90.88;102795.28;5034704;28;20347;-40
2021/03/02 01:17:01;;;;;;;;;;;0.80;99.90;;;-1.18;90.55;102799.63;5002032;28;19925;-40
2021/03/02 01:19:28;;;;;;;;;;;0.80;99.90;;;-1.17;90.53;102801.34;5018114;28;20487;-40
2021/03/02 01:21:56;;;;;;;;;;;0.80;99.90;;;-1.18;91.02;102805.84;5017003;28;20551;-40
2021/03/02 01:24:24;;;;;;;;;;;0.80;99.90;;;-1.22;90.69;102800.75;5017605;28;19929;-40
2021/03/02 01:26:51;;;;;;;;;;;0.80;99.90;;;-1.24;90.50;102802.66;5018211;28;19929;-40
2021/03/02 01:29:18;;;;;;;;;;;0.70;99.90;;;-1.29;91.22;102797.53;5001749;28;19932;-40
2021/03/02 01:31:45;;;;;;;;;;;0.70;99.90;;;-1.30;90.80;102795.81;5001532;28;19925;-40
2021/03/02 01:34:13;;;;;;;;;;;0.70;99.90;;;-1.30;91.29;102793.13;5001188;28;19979;-40
2021/03/02 01:36:40;;;;;;;;;;;0.70;99.90;;;-1.33;91.40;102796.88;5034371;28;19931;-40
2021/03/02 01:39:07;;;;;;;;;;;0.60;99.90;;;-1.34;90.54;102796.94;5001609;28;20402;-40
2021/03/02 01:41:34;;;;;;;;;;;0.60;99.90;;;-1.29;91.45;102792.19;5017768;28;20403;-40
2021/03/02 01:44:02;;;;;;;;;;;0.70;99.90;;;-1.28;91.59;102793.91;5001094;28;19975;-40
2021/03/02 01:46:29;;;;;;;;;;;0.70;99.90;;;-1.19;92.77;102788.06;5018084;28;20016;-40
2021/03/02 01:48:57;;;;;;;;;;;0.70;99.90;;;-1.20;91.94;102788.13;5001761;28;19929;-40
2021/03/02 01:51:24;;;;;;;;;;;0.80;99.90;;;-1.27;91.51;102790.28;5017603;28;20024;-40
2021/03/02 01:53:51;;;;;;;;;;;0.70;99.90;;;-1.29;91.52;102783.28;5000618;28;19936;-40
2021/03/02 01:56:19;;;;;;;;;;;0.70;99.90;;;-1.34;91.51;102786.22;5001496;28;19925;-40
2021/03/02 01:58:46;;;;;;;;;;;0.60;99.90;;;-1.36;91.72;102793.47;5001563;28;19924;-40
2021/03/02 02:01:14;;;;;;;;;;;0.60;99.90;;;-1.40;91.23;102789.25;4985408;28;19931;-40
2021/03/02 02:03:46;;;;;;;;;;;0.60;99.90;;;-1.44;91.27;102788.53;5033302;28;20007;-40
2021/03/02 02:06:33;;;;;;;;;;;0.50;99.90;;;-1.38;91.97;102788.19;5033956;28;19932;-40
2021/03/02 02:09:15;;;;;;;;;;;0.60;99.90;;;-1.42;92.27;102789.31;5037472;28;19925;-40
2021/03/02 02:11:52;;;;;;;;;;;0.50;99.90;;;-1.45;91.67;102789.50;5054354;28;19929;-40
2021/03/02 02:14:29;;;;;;;;;;;0.50;99.90;;;-1.47;91.82;102796.75;5020640;28;20035;-40
2021/03/02 02:16:58;;;;;;;;;;;0.50;99.90;;;-1.51;91.44;102797.88;5021376;28;19931;-40
2021/03/02 02:19:40;;;;;;;;;;;0.50;99.90;;;-1.56;91.26;102794.59;5005369;28;19935;-40
2021/03/02 02:22:21;;;;;;;;;;;0.40;99.90;;;-1.65;90.80;102783.41;5052705;28;19925;-40
2021/03/02 02:24:59;;;;;;;;;;;0.40;99.90;;;-1.64;91.20;102787.81;5022168;28;19947;-40
2021/03/02 02:27:28;;;;;;;;;;;0.40;99.90;;;-1.63;91.58;102788.69;5021116;28;20347;-40
2021/03/02 02:29:56;;;;;;;;;;;0.40;99.90;;;-1.67;91.14;102784.47;5020951;28;19925;-40
2021/03/02 02:32:27;;;;;;;;;;;0.30;99.90;;;-1.72;91.76;102784.72;5020940;28;20375;-40
2021/03/02 02:34:57;;;;;;;;;;;0.30;99.90;;;-1.79;90.74;102780.66;5036742;28;20399;-40
2021/03/02 02:37:28;;;;;;;;;;;0.20;99.90;;;-1.82;90.66;102781.66;5020896;28;19945;-40
2021/03/02 02:39:56;;;;;;;;;;;0.20;99.90;;;-1.86;91.25;102769.41;5021041;28;19929;-40
2021/03/02 02:42:26;;;;;;;;;;;0.20;99.90;;;-1.84;91.11;102774.69;5037245;28;19932;-40
2021/03/02 02:44:55;;;;;;;;;;;0.20;99.90;;;-1.82;90.66;102778.13;5020019;28;20453;-40
2021/03/02 02:47:23;;;;;;;;;;;0.20;99.90;;;-1.83;91.15;102773.75;5020666;28;19932;-40
2021/03/02 02:49:52;;;;;;;;;;;0.20;99.90;;;-1.85;91.02;102768.44;5020739;28;19925;-40
2021/03/02 02:52:21;;;;;;;;;;;0.20;99.90;;;-1.86;91.31;102769.41;5037053;28;19935;-40
2021/03/02 02:54:51;;;;;;;;;;;0.20;99.90;;;-1.85;91.00;102770.28;5052839;28;19925;-40
2021/03/02 02:57:19;;;;;;;;;;;0.10;99.90;;;-1.88;91.27;102766.78;5037015;28;19925;-40
2021/03/02 02:59:49;;;;;;;;;;;0.10;99.90;;;-1.88;91.51;102773.97;5036874;28;19933;-40
2021/03/02 03:02:21;;;;;;;;;;;0.10;99.90;;;-1.93;91.56;102768.84;5020238;28;19925;-40
2021/03/02 03:04:53;;;;;;;;;;;0.10;99.90;;;-1.94;90.55;102763.59;5036138;28;19925;-40
2021/03/02 03:07:26;;;;;;;;;;;0.00;99.90;;;-1.95;90.67;102765.41;5036986;28;20338;-40
2021/03/02 03:09:55;;;;;;;;;;;0.00;99.90;;;-1.95;91.01;102770.75;5036907;28;19932;-40
2021/03/02 03:12:26;;;;;;;;;;;0.10;99.90;;;-1.97;91.21;102767.31;5020124;28;19935;-40
2021/03/02 03:14:59;;;;;;;;;;;0.00;99.90;;;-2.01;91.05;102768.41;5019654;28;19925;-40
2021/03/02 03:17:32;;;;;;;;;;;0.00;99.90;;;-2.03;90.70;102770.31;5052973;28;19924;-40
2021/03/02 03:20:03;;;;;;;;;;;0.00;99.90;;;-2.02;90.69;102772.03;5035887;28;20406;-40
2021/03/02 03:22:33;;;;;;;;;;;0.00;99.90;;;-2.05;89.91;102761.50;5051856;28;19928;-40
2021/03/02 03:25:03;;;;;;;;;;;-0.10;99.90;;;-2.09;89.86;102765.28;5035769;28;20186;-40
2021/03/02 03:27:33;;;;;;;;;;;-0.10;99.90;;;-2.14;90.15;102767.31;5036799;28;20007;-40
2021/03/02 03:30:02;;;;;;;;;;;-0.10;99.90;;;-2.20;90.00;102763.19;5052901;28;19925;-40
2021/03/02 03:32:31;;;;;;;;;;;-0.20;99.90;;;-2.22;89.79;102760.56;5036558;28;19924;-40
2021/03/02 03:35:02;;;;;;;;;;;-0.20;99.90;;;-2.24;89.35;102767.81;5019332;28;19925;-40
2021/03/02 03:37:32;;;;;;;;;;;-0.20;99.90;;;-2.27;89.20;102762.63;5054064;28;19982;-40
2021/03/02 03:40:00;;;;;;;;;;;-0.20;99.90;;;-2.30;89.85;102760.13;5003807;28;20384;-40
2021/03/02 03:42:27;;;;;;;;;;;-0.30;99.90;;;-2.30;90.08;102768.16;5053857;28;19928;-40
2021/03/02 03:45:05;;;;;;;;;;;-0.30;99.90;;;-2.32;89.31;102765.53;5036579;28;20010;-40
2021/03/02 03:47:34;;;;;;;;;;;-0.30;99.90;;;-2.32;89.24;102773.56;5052553;28;19924;-40
2021/03/02 03:50:04;;;;;;;;;;;-0.30;99.90;;;-2.34;89.35;102777.28;5035859;28;19968;-40
2021/03/02 03:52:33;;;;;;;;;;;-0.40;99.90;;;-2.35;89.07;102780.91;5052381;28;19924;-40
2021/03/02 03:55:03;;;;;;;;;;;-0.30;99.90;;;-2.38;89.47;102776.56;5035149;28;20319;-40
2021/03/02 03:57:30;;;;;;;;;;;-0.40;99.90;;;-2.41;89.30;102773.16;5052519;28;20131;-40
2021/03/02 03:59:59;;;;;;;;;;;-0.40;99.90;;;-2.49;89.62;102771.75;5035682;28;19929;-40
2021/03/02 04:02:28;;;;;;;;;;;-0.40;99.90;;;-2.54;89.13;102767.59;5052228;28;19932;-40
2021/03/02 04:04:56;;;;;;;;;;;-0.50;99.90;;;-2.54;89.87;102770.25;5051355;28;19925;-40
2021/03/02 04:07:23;;;;;;;;;;;-0.50;99.90;;;-2.53;89.79;102772.88;5052198;28;19925;-40
2021/03/02 04:09:52;;;;;;;;;;;-0.50;99.90;;;-2.52;89.45;102771.94;5052264;28;20288;-40
2021/03/02 04:12:21;;;;;;;;;;;-0.50;99.90;;;-2.52;90.09;102771.94;5052067;28;20366;-40
2021/03/02 04:14:48;;;;;;;;;;;-0.50;99.90;;;-2.53;89.64;102778.22;5034631;28;19929;-40
2021/03/02 04:17:16;;;;;;;;;;;-0.50;99.90;;;-2.53;89.75;102772.88;5003185;28;20019;-40
2021/03/02 04:19:43;;;;;;;;;;;-0.50;99.90;;;-2.55;89.42;102768.53;5035336;28;20387;-40
2021/03/02 04:22:11;;;;;;;;;;;-0.50;99.90;;;-2.56;89.27;102777.50;5050841;28;19924;-40
2021/03/02 04:24:38;;;;;;;;;;;-0.60;99.90;;;-2.57;89.38;102770.44;5051042;28;19932;-40
2021/03/02 04:27:05;;;;;;;;;;;-0.60;99.90;;;-2.61;89.34;102775.94;5052060;28;20350;-40
2021/03/02 04:29:32;;;;;;;;;;;-0.60;99.90;;;-2.64;89.49;102769.91;5035749;28;19931;-40
2021/03/02 04:31:59;;;;;;;;;;;-0.60;99.90;;;-2.68;89.74;102768.28;5002044;28;19932;-40
2021/03/02 04:34:27;;;;;;;;;;;-0.60;99.90;;;-2.69;89.50;102772.78;5034524;28;20461;-40
2021/03/02 04:36:54;;;;;;;;;;;-0.70;99.90;;;-2.71;89.53;102769.34;5036094;28;20032;-40
2021/03/02 04:39:21;;;;;;;;;;;-0.60;99.90;;;-2.75;89.46;102765.94;5035163;28;19925;-40
2021/03/02 04:41:48;;;;;;;;;;;-0.70;99.90;;;-2.77;89.77;102761.63;5034957;28;19925;-40
2021/03/02 04:44:16;;;;;;;;;;;-0.70;99.90;;;-2.76;89.52;102766.88;5017969;28;19970;-40
2021/03/02 04:46:43;;;;;;;;;;;-0.70;99.90;;;-2.71;89.97;102768.44;5018501;28;20391;-40
2021/03/02 04:49:10;;;;;;;;;;;-0.70;99.90;;;-2.70;89.90;102767.50;5034972;28;19929;-40
2021/03/02 04:51:37;;;;;;;;;;;-0.70;99.90;;;-2.77;90.09;102764.31;5051361;28;20399;-40
2021/03/02 04:54:05;;;;;;;;;;;-0.70;99.90;;;-2.82;89.98;102769.00;5017829;28;19925;-40
2021/03/02 04:56:32;;;;;;;;;;;-0.80;99.90;;;-2.79;89.68;102767.03;5034847;28;19929;-40
2021/03/02 04:58:59;;;;;;;;;;;-0.70;99.90;;;-2.76;90.40;102772.22;5034739;28;19925;-40
2021/03/02 05:01:26;;;;;;;;;;;-0.70;99.90;;;-2.76;90.70;102768.72;5034811;28;19925;-40
2021/03/02 05:03:53;;;;;;;;;;;-0.70;99.90;;;-2.77;90.91;102761.63;5051649;28;19928;-40
2021/03/02 05:06:20;;;;;;;;;;;-0.70;99.90;;;-2.76;90.46;102769.56;5051030;28;19962;-40
2021/03/02 05:08:47;;;;;;;;;;;-0.70;99.90;;;-2.74;90.38;102769.50;5018503;28;20186;-40
2021/03/02 05:11:14;;;;;;;;;;;-0.70;99.90;;;-2.72;90.89;102767.59;5051055;28;20023;-40
2021/03/02 05:13:41;;;;;;;;;;;-0.70;99.90;;;-2.72;90.73;102770.28;5051632;28;19925;-40
2021/03/02 05:16:12;;;;;;;;;;;-0.70;99.90;;;-2.78;90.96;102768.78;5034732;28;20462;-40
2021/03/02 05:18:41;;;;;;;;;;;-0.70;99.90;;;-2.76;90.61;102768.72;5050999;28;19925;-40
2021/03/02 05:21:09;;;;;;;;;;;-0.70;99.90;;;-2.75;91.05;102763.28;5033010;28;19977;-40
2021/03/02 05:23:37;;;;;;;;;;;-0.70;99.90;;;-2.75;90.89;102768.59;5050357;28;19928;-40
2021/03/02 05:26:05;;;;;;;;;;;-0.80;99.90;;;-2.78;91.24;102765.25;5018103;28;19924;-40
2021/03/02 05:28:32;;;;;;;;;;;-0.70;99.90;;;-2.80;90.49;102759.97;5034317;28;20395;-40
2021/03/02 05:30:59;;;;;;;;;;;-0.80;99.90;;;-2.81;90.40;102760.91;5018022;28;19932;-40
2021/03/02 05:33:26;;;;;;;;;;;-0.80;99.90;;;-2.79;91.28;102751.00;5000817;28;20023;-40
2021/03/02 05:35:53;;;;;;;;;;;-0.80;99.90;;;-2.76;91.00;102760.69;4985624;28;19924;-40
2021/03/02 05:38:21;;;;;;;;;;;-0.80;99.90;;;-2.78;91.30;102758.06;5017887;28;19978;-40
2021/03/02 05:40:49;;;;;;;;;;;-0.80;99.90;;;-2.80;91.41;102759.97;5034156;28;19971;-40
2021/03/02 05:43:17;;;;;;;;;;;-0.80;99.90;;;-2.82;91.56;102761.84;5049599;28;19970;-40
2021/03/02 05:45:44;;;;;;;;;;;-0.80;99.90;;;-2.83;91.06;102759.25;5034347;28;19925;-40
2021/03/02 05:48:12;;;;;;;;;;;-0.80;99.90;;;-2.85;91.60;102756.66;5051704;28;19940;-40
2021/03/02 05:50:41;;;;;;;;;;;-0.80;99.90;;;-2.84;91.46;102765.53;5052033;28;19936;-40
2021/03/02 05:53:09;;;;;;;;;;;-0.80;99.90;;;-2.86;91.85;102760.28;5052281;28;19931;-40
2021/03/02 05:55:37;;;;;;;;;;;-0.90;99.90;;;-2.89;90.89;102760.44;5049753;28;20015;-40
2021/03/02 05:58:05;;;;;;;;;;;-0.80;99.90;;;-2.91;91.12;102759.66;5051760;28;19932;-40
2021/03/02 06:00:32;;;;;;;;;;;-0.90;99.90;;;-2.96;90.92;102753.66;5051715;28;20387;-40
2021/03/02 06:02:59;;;;;;;;;;;-0.90;99.90;;;-2.91;91.02;102756.97;5033877;28;20015;-40
2021/03/02 06:05:27;;;;;;;;;;;-0.90;99.90;;;-2.93;90.59;102759.72;5049803;28;19925;-40
2021/03/02 06:07:54;;;;;;;;;;;-0.90;99.90;;;-2.94;90.94;102759.78;5051714;28;19924;-40
2021/03/02 06:10:29;;;;;;;;;;;-0.90;99.90;;;-2.94;90.82;102765.13;5034026;28;20449;-40
2021/03/02 06:12:58;;;;;;;;;;;-0.90;99.90;;;-2.93;90.30;102761.50;5050362;28;19925;-40
2021/03/02 06:15:27;;;;;;;;;;;-0.90;99.90;;;-2.95;90.20;102761.59;5050892;28;19925;-40
2021/03/02 06:18:15;;;;;;;;;;;-0.90;99.90;;;-2.98;90.17;102772.44;5051577;28;19932;-40
2021/03/02 06:20:43;;;;;;;;;;;-1.00;99.90;;;-2.98;90.15;102771.56;5049202;28;19964;-40
2021/03/02 06:23:20;;;;;;;;;;;-1.00;99.90;;;-3.00;90.69;102765.44;5051361;28;20314;-40
2021/03/02 06:25:49;;;;;;;;;;;-1.00;99.90;;;-3.04;90.29;102762.06;5050354;28;20003;-40
2021/03/02 06:28:36;;;;;;;;;;;-1.00;99.90;;;-3.01;89.84;102767.25;5051478;28;19979;-40
2021/03/02 06:31:03;;;;;;;;;;;-1.00;99.90;;;-3.08;90.54;102756.00;5033606;28;19925;-40
2021/03/02 06:33:31;;;;;;;;;;;-1.00;99.90;;;-3.02;90.24;102765.53;5033255;28;19924;-40
2021/03/02 06:35:58;;;;;;;;;;;-1.00;99.90;;;-3.01;90.56;102769.94;5034060;28;19929;-40
2021/03/02 06:38:27;;;;;;;;;;;-1.00;99.90;;;-2.95;90.43;102766.06;5033857;28;19925;-40
2021/03/02 06:40:55;;;;;;;;;;;-1.00;99.90;;;-2.92;90.17;102771.25;5051314;28;19995;-40
2021/03/02 06:43:33;;;;;;;;;;;-0.90;99.90;;;-2.87;90.76;102768.34;5049762;28;19924;-40
2021/03/02 06:46:03;;;;;;;;;;;-0.90;99.90;;;-2.85;89.84;102767.34;5051516;28;20393;-40
2021/03/02 06:48:33;;;;;;;;;;;-0.90;99.90;;;-2.78;90.54;102771.44;5050076;28;19925;-40
2021/03/02 06:51:00;;;;;;;;;;;-0.80;99.90;;;-2.70;90.47;102772.84;5051280;28;19925;-40
2021/03/02 06:53:27;;;;;;;;;;;-0.80;99.90;;;-2.65;90.68;102768.16;5049215;28;19932;-40
2021/03/02 06:56:12;;;;;;;;;;;-0.70;99.90;;;-2.64;89.88;102770.75;5053925;28;20345;-40
2021/03/02 06:58:39;;;;;;;;;;;-0.70;99.90;;;-2.60;90.55;102772.31;5055116;28;20287;-40
2021/03/02 07:01:06;;;;;;;;;;;-0.60;99.90;;;-2.55;90.54;102772.09;5054778;28;19932;-40
2021/03/02 07:03:36;;;;;;;;;;;-0.60;99.90;;;-2.46;90.48;102778.78;5036081;28;20736;-40
2021/03/02 07:06:06;;;;;;;;;;;-0.60;99.90;;;-2.35;90.13;102772.88;5053243;28;19932;-40
2021/03/02 07:08:36;;;;;;;;;;;-0.50;99.90;;;-2.26;89.92;102779.53;5054778;28;19925;-40
2021/03/02 07:11:04;;;;;;;;;;;-0.40;99.90;;;-2.16;90.72;102778.13;5054707;28;20007;-40
2021/03/02 07:13:32;;;;;;;;;;;-0.30;99.90;;;-2.05;90.59;102777.56;5053878;28;19936;-40
2021/03/02 07:16:02;;;;;;;;;;;-0.20;99.90;;;-1.93;90.87;102776.03;5052965;28;20391;-40
2021/03/02 07:18:31;;;;;;;;;;;-0.10;99.90;;;-1.84;90.39;102780.88;5054440;28;19960;-40
2021/03/02 07:21:00;;;;;;;;;;;0.00;99.90;;;-1.70;90.91;102774.78;5052644;28;20391;-40
2021/03/02 07:23:30;;;;;;;;;;;0.10;99.90;;;-1.54;90.64;102780.16;5053497;28;20292;-40
2021/03/02 07:26:02;;;;;;;;;;;0.20;99.90;;;-1.38;90.76;102777.47;5052882;28;20426;-40
2021/03/02 07:28:35;;;;;;;;;;;0.30;99.90;;;-1.22;91.38;102787.34;5054250;28;19979;-40
2021/03/02 07:31:02;;;;;;;;;;;0.50;99.90;;;-1.09;91.06;102774.97;5054338;28;19925;-40
2021/03/02 07:33:31;;;;;;;;;;;0.60;99.90;;;-0.93;92.08;102787.50;5036130;28;19925;-40
2021/03/02 07:35:59;;;;;;;;;;;0.70;99.90;;;-0.80;92.25;102783.13;5052587;28;20398;-40
2021/03/02 07:38:26;;;;;;;;;;;0.90;99.90;;;-0.64;91.70;102782.25;5054104;28;19971;-40
2021/03/02 07:40:56;;;;;;;;;;;1.00;99.90;;;-0.47;92.97;102782.13;5052809;28;19925;-40
2021/03/02 07:43:27;;;;;;;;;;;1.20;99.90;;;-0.31;92.36;102789.22;5053442;28;19928;-40
2021/03/02 07:45:56;;;;;;;;;;;1.30;99.90;;;-0.17;93.20;102785.72;5053939;28;19924;-40
2021/03/02 07:48:36;;;;;;;;;;;1.40;99.90;;;0.03;93.17;102787.19;5052459;28;19994;-40
2021/03/02 07:51:15;;;;;;;;;;;1.60;99.90;;;0.26;93.14;102783.06;5053826;28;20319;-40
2021/03/02 07:53:44;;;;;;;;;;;1.80;99.90;;;0.46;93.60;102791.69;5053061;28;19928;-40
2021/03/02 07:56:14;;;;;;;;;;;2.00;99.90;;;0.68;93.54;102793.00;5053673;28;19967;-40
2021/03/02 07:58:43;;;;;;;;;;;2.10;99.90;;;0.92;94.10;102795.91;5052340;28;19929;-40
2021/03/02 08:01:18;;;;;;;;;;;2.40;99.90;;;1.11;94.48;102794.72;5053474;28;20300;-40
2021/03/02 08:03:46;;;;;;;;;;;2.50;99.90;;;1.37;94.67;102792.13;5052993;28;20007;-40
2021/03/02 08:06:24;;;;;;;;;;;2.80;99.90;;;1.62;94.52;102788.59;5052140;28;20346;-40
2021/03/02 08:08:52;;;;;;;;;;;3.00;99.90;;;1.92;94.77;102792.00;5053445;28;20360;-40
2021/03/02 08:11:30;;;;;;;;;;;3.30;99.90;;;2.19;95.04;102788.31;5052141;28;19936;-40
2021/03/02 08:14:00;;;;;;;;;;;3.50;99.90;;;2.38;94.47;102790.56;5052771;28;19987;-40
2021/03/02 08:16:47;;;;;;;;;;;3.70;99.90;;;2.61;94.15;102793.44;5051573;28;19925;-40
2021/03/02 08:19:33;;;;;;;;;;;3.90;99.90;;;2.93;94.12;102801.00;5052252;28;19925;-40
2021/03/02 08:22:02;;;;;;;;;;;4.20;99.90;;;3.21;93.32;102801.63;5053079;28;19924;-41
2021/03/02 08:24:48;;;;;;;;;;;4.50;99.90;;;3.49;92.99;102803.09;5052316;28;19925;-40
2021/03/02 08:27:16;;;;;;;;;;;4.80;99.90;;;3.79;92.17;102798.16;5053265;28;19925;-40
2021/03/02 08:29:49;;;;;;;;;;;5.10;99.90;;;4.02;89.26;102804.47;5051757;28;19924;-40
2021/03/02 08:32:18;;;;;;;;;;;5.30;99.90;;;4.28;86.94;102807.81;5051789;28;19925;-40
2021/03/02 08:34:45;;;;;;;;;;;5.50;99.90;;;4.50;85.12;102802.50;5052255;28;19924;-40
2021/03/02 08:37:12;;;;;;;;;;;5.70;99.90;;;4.75;83.54;102796.81;5052882;28;20055;-40
2021/03/02 08:39:40;;;;;;;;;;;5.90;99.90;;;5.02;81.52;102800.94;5051591;28;19929;-40
2021/03/02 08:42:08;;;;;;;;;;;6.30;99.90;;;5.35;80.83;102805.53;5051729;28;20027;-40
2021/03/02 08:44:35;;;;;;;;;;;6.50;99.90;;;5.52;79.44;102796.00;5051828;28;19960;-40
2021/03/02 08:47:03;;;;;;;;;;;6.70;99.90;;;5.73;79.05;102801.41;5035215;28;19951;-40
2021/03/02 08:49:30;;;;;;;;;;;6.90;99.90;;;5.94;76.18;102801.41;5051406;28;19929;-41
2021/03/02 08:51:59;;;;;;;;;;;7.10;99.90;;;6.10;73.72;102806.41;5035112;28;20386;-40
2021/03/02 08:54:26;;;;;;;;;;;7.40;99.90;;;6.25;75.04;102800.59;5051884;28;19929;-41
2021/03/02 08:57:04;;;;;;;;;;;7.50;99.90;;;6.45;72.42;102802.41;5035029;28;20046;-40
2021/03/02 08:59:32;;;;;;;;;;;7.70;99.90;;;6.61;72.14;102801.91;5051343;28;19925;-41
2021/03/02 09:01:59;;;;;;;;;;;7.90;99.90;;;6.79;70.49;102801.25;5052530;28;19924;-40
2021/03/02 09:04:36;;;;;;;;;;;8.00;99.90;;;7.01;70.16;102813.72;5033968;28;19932;-40
2021/03/02 09:07:04;;;;;;;;;;;8.20;99.90;;;7.17;68.41;102806.88;5052581;28;19956;-40
2021/03/02 09:09:31;;;;;;;;;;;8.40;99.90;;;7.38;68.70;102808.59;5052468;28;19939;-40
2021/03/02 09:12:00;;;;;;;;;;;8.60;99.90;;;7.55;69.74;102813.31;5052411;28;20310;-40
2021/03/02 09:14:33;;;;;;;;;;;8.70;99.90;;;7.68;68.47;102804.88;5051377;28;19925;-40
2021/03/02 09:17:02;;;;;;;;;;;8.90;99.90;;;7.88;65.59;102805.69;5050299;28;20403;-40
2021/03/02 09:19:33;;;;;;;;;;;9.10;99.90;;;8.09;65.29;102812.81;5052414;28;19925;-41
2021/03/02 09:22:12;;;;;;;;;;;9.30;99.90;;;8.23;64.51;102806.03;5050695;28;19925;-41
2021/03/02 09:25:01;;;;;;;;;;;9.50;99.90;;;8.43;65.24;102809.53;5051318;28;19967;-41
2021/03/02 09:27:32;;;;;;;;;;;9.60;99.90;;;8.61;62.31;102816.94;5051984;28;19943;-41
2021/03/02 09:30:00;;;;;;;;;;;9.80;99.90;;;8.73;62.18;102813.00;5050830;28;19932;-41
2021/03/02 09:32:31;;;;;;;;;;;10.00;99.90;;;8.85;62.35;102818.25;5052116;28;19932;-41
2021/03/02 09:35:03;;;;;;;;;;;10.10;99.90;;;8.97;60.77;102817.00;5051290;28;19931;-41
2021/03/02 09:37:30;;;;;;;;;;;10.20;99.90;;;9.07;62.06;102814.22;5050785;28;19932;-41
2021/03/02 09:39:59;;;;;;;;;;;10.30;99.90;;;9.17;60.70;102816.91;5034256;28;20466;-41
2021/03/02 09:42:28;;;;;;;;;;;10.40;99.90;;;9.32;60.86;102818.09;5051952;28;19932;-41
2021/03/02 09:44:58;;;;;;;;;;;10.50;99.90;;;9.40;59.64;102813.72;5051083;28;19924;-41
2021/03/02 09:47:28;;;;;;;;;;;10.60;99.90;;;9.49;60.48;102815.50;5051840;28;19936;-42
2021/03/02 09:49:58;;;;;;;;;;;10.70;99.90;;;9.55;59.71;102809.44;5050743;28;19948;-41
2021/03/02 09:52:29;;;;;;;;;;;10.80;99.90;;;9.67;59.13;102807.28;5050696;28;20315;-41
2021/03/02 09:55:11;;;;;;;;;;;10.90;99.90;;;9.77;59.41;102801.75;5051245;28;19932;-41
2021/03/02 09:57:51;;;;;;;;;;;10.90;99.90;;;9.97;57.75;102812.47;5050697;28;19925;-41
2021/03/02 10:00:33;;;;;;;;;;;11.10;99.90;;;10.04;56.39;102805.34;5050520;28;19925;-41
2021/03/02 10:03:13;;;;;;;;;;;11.20;99.90;;;10.16;57.21;102801.34;5051509;28;19925;-41
2021/03/02 10:05:43;;;;;;;;;;;11.30;99.90;;;10.29;57.81;102802.75;5051418;28;20379;-41
2021/03/02 10:08:21;;;;;;;;;;;11.50;99.90;;;10.37;56.74;102802.84;5034369;28;19932;-41
2021/03/02 10:10:49;;;;;;;;;;;11.50;99.90;;;10.42;56.51;102802.34;5051720;28;19925;-41
2021/03/02 10:13:36;;;;;;;;;;;11.60;99.90;;;10.54;55.67;102802.91;5050797;28;19925;-41
2021/03/02 10:16:13;;;;;;;;;;;11.70;99.90;;;10.69;54.52;102803.16;5050418;28;19968;-41
2021/03/02 10:18:52;;;;;;;;;;;11.80;99.90;;;10.74;54.32;102804.38;5050417;28;19924;-41
2021/03/02 10:21:20;;;;;;;;;;;;;;;10.83;54.98;102804.38;5050057;28;19935;-41
2021/03/02 10:23:50;;;;;;;;;;;11.90;99.90;;;10.97;54.79;102800.16;5050814;28;19931;-41
2021/03/02 10:26:22;;;;;;;;;;;12.20;99.90;;;11.12;54.26;102800.38;5050399;28;19932;-41
2021/03/02 10:28:49;;;;;;;;;;;12.30;99.90;;;11.15;52.65;102800.91;5052980;28;20304;-41
2021/03/02 10:31:16;;;;;;;;;;;12.40;99.90;;;11.17;51.98;102809.78;5055135;28;19971;-41
2021/03/02 10:33:45;;;;;;;;;;;12.40;99.90;;;11.25;52.78;102798.00;5036881;28;19931;-41
2021/03/02 10:36:24;;;;;;;;;;;12.50;99.90;;;11.34;52.51;102799.72;5055050;28;19929;-41
2021/03/02 10:38:53;;;;;;;;;;;12.50;99.90;;;11.47;52.41;102803.84;5056467;28;19932;-41
2021/03/02 10:41:20;;;;;;;;;;;12.70;99.90;;;11.47;51.67;102799.22;5053763;28;20738;-41
2021/03/02 10:43:49;;;;;;;;;;;12.70;99.90;;;11.57;51.89;102799.03;5036794;28;19924;-41
2021/03/02 10:46:18;;;;;;;;;;;12.80;99.90;;;11.72;51.79;102804.69;5055074;28;19971;-41
2021/03/02 10:48:47;;;;;;;;;;;12.90;99.90;;;11.77;51.10;102798.72;5053665;28;19932;-41
2021/03/02 10:51:16;;;;;;;;;;;13.00;99.10;;;11.80;49.62;102795.63;5053977;28;19931;-40
2021/03/02 10:53:44;;;;;;;;;;;13.10;97.60;;;11.84;50.31;102801.63;5054076;28;20375;-41
2021/03/02 10:56:13;;;;;;;;;;;13.10;98.50;;;11.90;49.77;102788.06;5053529;28;19925;-41
2021/03/02 10:58:41;;;;;;;;;;;13.20;97.70;;;11.98;51.63;102795.41;5053505;28;20020;-41
2021/03/02 11:01:09;;;;;;;;;;;13.20;99.00;;;12.07;51.10;102790.81;5054737;28;20362;-41
2021/03/02 11:03:36;;;;;;;;;;;13.30;98.70;;;12.21;50.28;102795.59;5036540;28;19929;-41
2021/03/02 11:06:03;;;;;;;;;;;13.30;98.30;;;12.27;47.99;102788.53;5053327;28;19924;-41
2021/03/02 11:08:30;;;;;;;;;;;13.50;95.70;;;12.39;49.86;102791.75;5036928;28;19924;-41
2021/03/02 11:10:58;;;;;;;;;;;13.60;97.60;;;12.47;49.37;102789.00;5053445;28;19925;-41
2021/03/02 11:13:25;;;;;;;;;;;13.60;96.70;;;12.52;50.34;102785.72;5052537;28;20003;-41
2021/03/02 11:15:52;;;;;;;;;;;13.70;97.20;;;12.60;50.46;102779.34;5052984;28;19928;-41
2021/03/02 11:18:19;;;;;;;;;;;13.80;97.20;;;12.64;47.63;102775.22;5054543;28;19935;-41
2021/03/02 11:20:46;;;;;;;;;;;13.80;94.70;;;12.76;49.16;102772.94;5020292;28;19925;-41
2021/03/02 11:23:15;;;;;;;;;;;13.90;96.00;;;12.87;48.70;102775.28;5036261;28;19925;-41
2021/03/02 11:25:43;;;;;;;;;;;14.00;95.70;;;12.99;47.06;102769.38;5052887;28;19939;-41
2021/03/02 11:28:12;;;;;;;;;;;14.10;94.10;;;13.01;46.71;102762.69;5052985;28;19924;-41